Aviation Digital Data Service (ADDS)

Output produced by METARs form (1129 UTC 21 April 2018)
found at http://aviationweather.gov/adds/metars/
 
KISP 211127Z 2112/2212 31010KT P6SM FEW250 
     FM211700 30011G19KT P6SM FEW040 FEW250 
     FM212300 27009KT P6SM FEW040 FEW250 
     FM220200 32006KT P6SM FEW250